createdAt,value
2019-05-03T00:01:08.137Z,99326.41
2019-05-03T00:03:37.579Z,99330.80
2019-05-03T00:06:06.969Z,99321.02
2019-05-03T00:08:36.472Z,99320.98
2019-05-03T00:11:05.919Z,99319.09
2019-05-03T00:13:35.525Z,99324.55
2019-05-03T00:16:06.787Z,99324.11
2019-05-03T00:18:36.184Z,99328.94
2019-05-03T00:21:05.541Z,99330.98
2019-05-03T00:23:36.050Z,99332.58
2019-05-03T00:26:05.688Z,99330.74
2019-05-03T00:28:35.078Z,99333.25
2019-05-03T00:31:04.587Z,99336.88
2019-05-03T00:33:34.945Z,99339.66
2019-05-03T00:36:06.101Z,99337.53
2019-05-03T00:38:35.924Z,99332.36
2019-05-03T00:41:05.707Z,99334.42
2019-05-03T00:43:35.210Z,99334.33
2019-05-03T00:46:04.712Z,99336.52
2019-05-03T00:48:34.095Z,99338.14
2019-05-03T00:51:03.530Z,99331.06
2019-05-03T00:53:33.251Z,99335.73
2019-05-03T00:56:02.614Z,99334.64
2019-05-03T00:58:33.875Z,99334.06
2019-05-03T01:01:03.938Z,99337.53
2019-05-03T01:03:33.316Z,99334.34
2019-05-03T01:06:02.705Z,99334.52
2019-05-03T01:08:32.651Z,99331.66
2019-05-03T01:11:02.253Z,99329.41
2019-05-03T01:13:32.109Z,99337.73
2019-05-03T01:16:03.202Z,99332.96
2019-05-03T01:18:32.606Z,99333.66
2019-05-03T01:21:02.342Z,99337.59
2019-05-03T01:23:34.706Z,99332.48
2019-05-03T01:26:03.666Z,99331.03
2019-05-03T01:28:33.052Z,99330.70
2019-05-03T01:31:02.694Z,99334.84
2019-05-03T01:33:32.337Z,99334.11
2019-05-03T01:36:02.747Z,99334.36
2019-05-03T01:38:32.324Z,99335.64
2019-05-03T01:41:01.935Z,99336.02
2019-05-03T01:43:52.435Z,99339.20
2019-05-03T01:46:22.759Z,99333.09
2019-05-03T01:48:54.204Z,99331.92
2019-05-03T01:51:25.205Z,99327.10
2019-05-03T01:53:54.581Z,99335.40
2019-05-03T01:56:23.963Z,99334.25
2019-05-03T01:58:53.623Z,99339.81
2019-05-03T02:01:24.645Z,99338.47
2019-05-03T02:04:02.998Z,99338.69
2019-05-03T02:06:32.403Z,99346.08
2019-05-03T02:09:01.790Z,99346.65
2019-05-03T02:11:32.630Z,99347.35
2019-05-03T02:14:02.118Z,99352.48
2019-05-03T02:16:32.480Z,99346.64
2019-05-03T02:19:02.496Z,99351.89
2019-05-03T02:21:32.253Z,99348.84
2019-05-03T02:24:02.618Z,99346.01
2019-05-03T02:26:32.425Z,99353.38
2019-05-03T02:29:01.961Z,99352.27
2019-05-03T02:31:32.763Z,99359.14
2019-05-03T02:34:03.582Z,99364.29
2019-05-03T02:36:33.884Z,99363.13
2019-05-03T02:39:06.100Z,99364.05
2019-05-03T02:41:35.487Z,99361.00
2019-05-03T02:44:06.266Z,99363.41
2019-05-03T02:46:56.030Z,99365.55
2019-05-03T02:49:26.311Z,99366.02
2019-05-03T02:51:55.726Z,99368.67
2019-05-03T02:54:27.009Z,99364.77
2019-05-03T02:56:56.957Z,99369.00
2019-05-03T02:59:26.642Z,99368.23
2019-05-03T03:01:56.561Z,99369.02
2019-05-03T03:04:27.583Z,99368.13
2019-05-03T03:06:59.223Z,99366.27
2019-05-03T03:09:29.905Z,99364.36
2019-05-03T03:12:01.893Z,99365.94
2019-05-03T03:14:36.036Z,99363.36
2019-05-03T03:17:06.857Z,99364.58
2019-05-03T03:19:39.654Z,99358.00
2019-05-03T03:22:11.368Z,99364.88
2019-05-03T03:24:45.951Z,99365.12
2019-05-03T03:27:20.120Z,99369.05
2019-05-03T03:29:55.234Z,99371.14
2019-05-03T03:32:31.987Z,99373.22
2019-05-03T03:35:21.429Z,99376.81
2019-05-03T03:37:49.593Z,99375.94
2019-05-03T03:40:19.997Z,99376.34
2019-05-03T03:42:50.874Z,99380.45
2019-05-03T03:45:20.295Z,99382.17
2019-05-03T03:47:56.364Z,99380.77
2019-05-03T03:50:27.228Z,99381.80
2019-05-03T03:53:00.833Z,99380.02
2019-05-03T03:55:35.445Z,99383.69
2019-05-03T03:58:06.549Z,99383.00
2019-05-03T04:00:36.483Z,99386.36
2019-05-03T04:03:06.096Z,99386.28
2019-05-03T04:05:36.019Z,99386.67
2019-05-03T04:08:05.849Z,99392.04
2019-05-03T04:10:35.422Z,99397.94
2019-05-03T04:13:06.609Z,99403.02
2019-05-03T04:15:38.307Z,99398.03
2019-05-03T04:18:12.994Z,99397.64
2019-05-03T04:20:45.657Z,99395.75
2019-05-03T04:23:16.297Z,99396.98
2019-05-03T04:25:45.533Z,99399.36
2019-05-03T04:28:16.225Z,99401.14
2019-05-03T04:30:46.106Z,99406.05
2019-05-03T04:33:16.159Z,99405.42
2019-05-03T04:35:46.556Z,99408.73
2019-05-03T04:38:16.491Z,99409.59
2019-05-03T04:40:46.167Z,99412.87
2019-05-03T04:43:16.537Z,99421.30
2019-05-03T04:45:48.104Z,99419.38
2019-05-03T04:48:17.776Z,99426.38
2019-05-03T04:50:47.147Z,99428.47
2019-05-03T04:53:16.514Z,99433.69
2019-05-03T04:55:46.819Z,99437.31
2019-05-03T04:58:16.415Z,99440.49
2019-05-03T05:00:46.684Z,99443.48
2019-05-03T05:03:16.188Z,99450.87
2019-05-03T05:05:45.814Z,99452.78
2019-05-03T05:08:16.211Z,99449.22
2019-05-03T05:10:45.865Z,99459.98
2019-05-03T05:13:15.938Z,99460.89
2019-05-03T05:15:46.103Z,99463.14
2019-05-03T05:18:26.480Z,99463.56
2019-05-03T05:21:15.399Z,99467.70
2019-05-03T05:24:01.637Z,99478.13
2019-05-03T05:26:35.202Z,99474.11
2019-05-03T05:29:08.807Z,99476.41
2019-05-03T05:31:38.313Z,99480.41
2019-05-03T05:34:09.006Z,99480.27
2019-05-03T05:36:38.589Z,99480.10
2019-05-03T05:39:09.936Z,99482.71
2019-05-03T05:41:39.387Z,99484.50
2019-05-03T05:44:08.790Z,99480.88
2019-05-03T05:46:40.777Z,99484.95
2019-05-03T05:49:11.853Z,99491.16
2019-05-03T05:51:41.241Z,99495.63
2019-05-03T05:54:10.654Z,99505.66
2019-05-03T05:56:50.596Z,99508.14
2019-05-03T05:59:21.606Z,99505.55
2019-05-03T06:01:58.595Z,99510.82
2019-05-03T06:04:27.977Z,99509.71
2019-05-03T06:07:16.779Z,99512.52
2019-05-03T06:09:50.283Z,99511.81
2019-05-03T06:12:21.310Z,99509.84
2019-05-03T06:14:54.806Z,99514.73
2019-05-03T06:17:40.806Z,99513.79
2019-05-03T06:20:15.637Z,99512.51
2019-05-03T06:22:46.641Z,99520.31
2019-05-03T06:25:32.731Z,99517.64
2019-05-03T06:28:17.039Z,99520.97
2019-05-03T06:30:39.867Z,99520.23
2019-05-03T06:33:09.263Z,99525.28
2019-05-03T06:35:38.913Z,99519.31
2019-05-03T06:38:09.102Z,99525.03
2019-05-03T06:40:38.949Z,99519.51
2019-05-03T06:43:12.659Z,99517.55
2019-05-03T06:45:41.204Z,99516.73
2019-05-03T06:48:11.198Z,99517.70
2019-05-03T06:50:40.589Z,99525.41
2019-05-03T06:53:12.711Z,99525.81
2019-05-03T06:55:45.578Z,99529.56
2019-05-03T06:58:12.433Z,99532.27
2019-05-03T07:00:45.217Z,99529.75
2019-05-03T07:03:19.053Z,99536.95
2019-05-03T07:05:50.077Z,99533.97
2019-05-03T07:08:36.939Z,99533.70
2019-05-03T07:11:08.215Z,99533.12
2019-05-03T07:13:37.950Z,99549.32
2019-05-03T07:16:07.344Z,99540.33
2019-05-03T07:18:37.221Z,99541.52
2019-05-03T07:21:06.586Z,99539.20
2019-05-03T07:23:35.966Z,99538.57
2019-05-03T07:26:05.596Z,99541.59
2019-05-03T07:28:46.249Z,99538.53
2019-05-03T07:31:06.272Z,99536.43
2019-05-03T07:33:36.255Z,99529.40
2019-05-03T07:36:06.212Z,99533.15
2019-05-03T07:38:35.882Z,99527.13
2019-05-03T07:41:05.468Z,99530.92
2019-05-03T07:43:36.047Z,99528.34
2019-05-03T07:46:05.952Z,99526.91
2019-05-03T07:48:35.735Z,99523.25
2019-05-03T07:51:05.642Z,99521.59
2019-05-03T07:53:35.091Z,99527.16
2019-05-03T07:56:15.737Z,99524.98
2019-05-03T07:58:59.417Z,99525.33
2019-05-03T08:01:19.980Z,99522.28
2019-05-03T08:03:49.357Z,99521.31
2019-05-03T08:06:19.142Z,99522.73
2019-05-03T08:08:48.539Z,99521.97
2019-05-03T08:11:17.921Z,99522.63
2019-05-03T08:13:47.334Z,99527.30
2019-05-03T08:16:17.068Z,99530.52
2019-05-03T08:18:46.445Z,99519.02
2019-05-03T08:21:15.910Z,99519.78
2019-05-03T08:23:45.457Z,99518.41
2019-05-03T08:26:15.420Z,99513.83
2019-05-03T08:28:44.819Z,99519.56
2019-05-03T08:31:26.547Z,99517.97
2019-05-03T08:34:00.851Z,99519.17
2019-05-03T08:36:32.250Z,99515.67
2019-05-03T08:39:01.615Z,99518.41
2019-05-03T08:41:32.630Z,99522.45
2019-05-03T08:44:02.015Z,99526.16
2019-05-03T08:46:31.382Z,99525.30
2019-05-03T08:49:00.780Z,99520.44
2019-05-03T08:51:30.142Z,99521.05
2019-05-03T08:53:59.532Z,99524.98
2019-05-03T08:56:29.201Z,99516.48
2019-05-03T08:58:58.841Z,99513.68
2019-05-03T09:01:28.456Z,99511.66
2019-05-03T09:03:57.867Z,99509.95
2019-05-03T09:06:27.237Z,99513.56
2019-05-03T09:08:57.359Z,99508.00
2019-05-03T09:11:33.623Z,99502.17
2019-05-03T09:13:59.597Z,99503.50
2019-05-03T09:16:28.990Z,99510.61
2019-05-03T09:18:58.375Z,99502.97
2019-05-03T09:21:27.817Z,99499.52
2019-05-03T09:23:57.270Z,99507.30
2019-05-03T09:26:29.246Z,99502.62
2019-05-03T09:28:58.087Z,99513.58
2019-05-03T09:31:27.466Z,99503.88
2019-05-03T09:33:56.860Z,99504.76
2019-05-03T09:36:26.224Z,99498.56
2019-05-03T09:38:55.745Z,99503.36
2019-05-03T09:41:25.770Z,99495.28
2019-05-03T09:43:55.632Z,99501.44
2019-05-03T09:46:26.463Z,99489.55
2019-05-03T09:49:09.404Z,99491.37
2019-05-03T09:51:27.138Z,99490.05
2019-05-03T09:54:09.649Z,99485.00
2019-05-03T09:56:58.682Z,99481.88
2019-05-03T09:59:30.047Z,99484.09
2019-05-03T10:02:00.060Z,99483.72
2019-05-03T10:04:29.428Z,99479.63
2019-05-03T10:06:58.801Z,99476.48
2019-05-03T10:09:28.179Z,99478.95
2019-05-03T10:11:57.627Z,99480.35
2019-05-03T10:14:27.073Z,99477.18
2019-05-03T10:17:06.751Z,99476.45
2019-05-03T10:19:40.115Z,99470.68
2019-05-03T10:22:07.298Z,99479.37
2019-05-03T10:24:36.669Z,99478.77
2019-05-03T10:27:06.367Z,99473.58
2019-05-03T10:29:35.737Z,99473.85
2019-05-03T10:32:06.891Z,99467.45
2019-05-03T10:34:36.264Z,99470.39
2019-05-03T10:37:08.498Z,99470.00
2019-05-03T10:39:37.882Z,99467.58
2019-05-03T10:42:07.246Z,99468.48
2019-05-03T10:44:36.616Z,99469.31
2019-05-03T10:47:06.259Z,99465.93
2019-05-03T10:49:35.660Z,99470.02
2019-05-03T10:52:06.674Z,99466.70
2019-05-03T10:54:36.305Z,99467.53
2019-05-03T10:57:07.387Z,99474.31
2019-05-03T10:59:36.751Z,99468.78
2019-05-03T11:02:10.750Z,99462.09
2019-05-03T11:04:41.986Z,99467.33
2019-05-03T11:07:11.661Z,99468.70
2019-05-03T11:09:49.648Z,99466.55
2019-05-03T11:12:14.772Z,99462.63
2019-05-03T11:14:45.531Z,99462.00
2019-05-03T11:17:15.036Z,99464.52
2019-05-03T11:19:45.478Z,99463.73
2019-05-03T11:22:15.061Z,99465.02
2019-05-03T11:24:45.346Z,99463.28
2019-05-03T11:27:16.666Z,99466.77
2019-05-03T11:29:46.058Z,99464.47
2019-05-03T11:32:19.482Z,99462.02
2019-05-03T11:34:50.478Z,99452.52
2019-05-03T11:37:21.514Z,99458.75
2019-05-03T11:39:51.851Z,99451.69
2019-05-03T11:42:21.227Z,99458.98
2019-05-03T11:44:50.624Z,99452.89
2019-05-03T11:47:20.075Z,99450.20
2019-05-03T11:49:49.476Z,99450.89
2019-05-03T11:52:18.868Z,99457.68
2019-05-03T11:54:48.231Z,99450.07
2019-05-03T11:57:19.274Z,99440.45
2019-05-03T11:59:48.639Z,99439.43
2019-05-03T12:02:31.480Z,99444.70
2019-05-03T12:05:05.688Z,99442.09
2019-05-03T12:07:39.608Z,99444.81
2019-05-03T12:10:17.122Z,99439.03
2019-05-03T12:12:44.566Z,99436.78
2019-05-03T12:15:15.108Z,99439.38
2019-05-03T12:17:54.049Z,99433.62
2019-05-03T12:20:19.282Z,99428.66
2019-05-03T12:22:49.212Z,99436.66
2019-05-03T12:25:20.498Z,99436.77
2019-05-03T12:27:50.585Z,99432.45
2019-05-03T12:30:20.554Z,99434.25
2019-05-03T12:32:54.672Z,99428.18
2019-05-03T12:35:24.641Z,99421.88
2019-05-03T12:38:16.299Z,99423.80
2019-05-03T12:40:45.549Z,99411.87
2019-05-03T12:43:15.097Z,99416.69
2019-05-03T12:45:44.457Z,99407.36
2019-05-03T12:48:15.548Z,99413.68
2019-05-03T12:50:46.333Z,99413.39
2019-05-03T12:53:16.260Z,99417.56
2019-05-03T12:55:45.623Z,99412.41
2019-05-03T12:58:15.167Z,99410.98
2019-05-03T13:01:04.425Z,99404.13
2019-05-03T13:03:35.600Z,99403.91
2019-05-03T13:06:07.312Z,99407.91
2019-05-03T13:08:40.138Z,99400.62
2019-05-03T13:11:09.670Z,99397.51
2019-05-03T13:13:39.131Z,99397.50
2019-05-03T13:16:10.338Z,99394.52
2019-05-03T13:18:40.004Z,99395.09
2019-05-03T13:21:09.527Z,99396.23
2019-05-03T13:23:39.227Z,99391.16
2019-05-03T13:26:08.615Z,99383.42
2019-05-03T13:28:38.001Z,99387.29
2019-05-03T13:31:07.409Z,99386.71
2019-05-03T13:33:36.793Z,99391.31
2019-05-03T13:36:06.695Z,99389.87
2019-05-03T13:38:36.079Z,99380.46
2019-05-03T13:41:06.858Z,99383.52
2019-05-03T13:43:36.363Z,99385.05
2019-05-03T13:46:05.778Z,99378.55
2019-05-03T13:48:45.484Z,99378.62
2019-05-03T13:51:06.249Z,99382.94
2019-05-03T13:53:35.744Z,99382.10
2019-05-03T13:56:05.684Z,99374.72
2019-05-03T13:58:35.870Z,99366.03
2019-05-03T14:01:05.901Z,99363.77
2019-05-03T14:03:36.368Z,99363.93
2019-05-03T14:06:08.412Z,99361.33
2019-05-03T14:08:37.121Z,99366.34
2019-05-03T14:11:07.878Z,99366.94
2019-05-03T14:13:37.226Z,99359.17
2019-05-03T14:16:06.963Z,99361.45
2019-05-03T14:18:36.790Z,99369.45
2019-05-03T14:21:24.528Z,99366.06
2019-05-03T14:24:09.527Z,99366.05
2019-05-03T14:26:40.794Z,99356.45
2019-05-03T14:29:10.709Z,99349.62
2019-05-03T14:31:40.150Z,99349.83
2019-05-03T14:34:09.593Z,99350.69
2019-05-03T14:36:38.980Z,99340.05
2019-05-03T14:39:10.253Z,99346.98
2019-05-03T14:41:39.990Z,99346.11
2019-05-03T14:44:09.397Z,99349.83
2019-05-03T14:46:39.131Z,99349.81
2019-05-03T14:49:08.585Z,99342.84
2019-05-03T14:51:37.988Z,99351.07
2019-05-03T14:54:08.233Z,99353.42
2019-05-03T14:56:48.467Z,99347.17
2019-05-03T14:59:37.622Z,99348.70
2019-05-03T15:02:08.793Z,99352.33
2019-05-03T15:04:38.765Z,99339.83
2019-05-03T15:07:08.451Z,99344.20
2019-05-03T15:09:37.832Z,99343.86
2019-05-03T15:12:07.204Z,99350.94
2019-05-03T15:14:36.625Z,99353.79
2019-05-03T15:17:05.992Z,99350.75
2019-05-03T15:19:35.392Z,99354.57
2019-05-03T15:22:05.599Z,99354.27
2019-05-03T15:24:35.273Z,99350.91
2019-05-03T15:27:04.996Z,99354.48
2019-05-03T15:29:35.481Z,99344.94
2019-05-03T15:32:05.304Z,99351.67
2019-05-03T15:34:35.380Z,99349.86
2019-05-03T15:37:05.691Z,99343.27
2019-05-03T15:39:35.310Z,99351.78
2019-05-03T15:42:05.370Z,99347.81
2019-05-03T15:44:54.662Z,99348.53
2019-05-03T15:47:31.755Z,99359.97
2019-05-03T15:50:01.480Z,99350.82
2019-05-03T15:52:30.886Z,99359.77
2019-05-03T15:55:00.270Z,99366.55
2019-05-03T15:57:29.665Z,99366.83
2019-05-03T15:59:59.053Z,99367.28
2019-05-03T16:02:28.457Z,99366.78
2019-05-03T16:04:58.799Z,99367.41
2019-05-03T16:07:28.201Z,99371.23
2019-05-03T16:09:57.611Z,99363.47
2019-05-03T16:12:26.971Z,99363.78
2019-05-03T16:14:56.397Z,99376.08
2019-05-03T16:17:25.761Z,99365.17
2019-05-03T16:19:55.799Z,99361.77
2019-05-03T16:22:25.268Z,99368.45
2019-05-03T16:24:55.684Z,99367.63
2019-05-03T16:27:29.317Z,99361.64
2019-05-03T16:29:59.293Z,99356.52
2019-05-03T16:32:28.730Z,99361.66
2019-05-03T16:34:58.371Z,99360.54
2019-05-03T16:37:27.747Z,99363.94
2019-05-03T16:39:57.915Z,99363.40
2019-05-03T16:42:27.466Z,99369.06
2019-05-03T16:44:56.848Z,99359.70
2019-05-03T16:47:26.513Z,99365.91
2019-05-03T16:49:55.937Z,99362.33
2019-05-03T16:52:25.747Z,99367.03
2019-05-03T16:54:55.153Z,99370.69
2019-05-03T16:57:24.829Z,99370.11
2019-05-03T16:59:55.124Z,99365.94
2019-05-03T17:02:24.698Z,99358.92
2019-05-03T17:04:55.876Z,99362.88
2019-05-03T17:07:32.967Z,99360.78
2019-05-03T17:10:07.422Z,99363.91
2019-05-03T17:12:38.322Z,99362.39
2019-05-03T17:15:14.424Z,99364.74
2019-05-03T17:17:45.209Z,99360.39
2019-05-03T17:20:16.559Z,99366.77
2019-05-03T17:22:46.978Z,99362.14
2019-05-03T17:25:16.380Z,99362.53
2019-05-03T17:27:45.758Z,99360.97
2019-05-03T17:30:15.924Z,99357.06
2019-05-03T17:32:45.647Z,99352.84
2019-05-03T17:35:15.804Z,99347.73
2019-05-03T17:37:45.369Z,99350.56
2019-05-03T17:40:20.092Z,99347.61
2019-05-03T17:42:57.030Z,99349.87
2019-05-03T17:45:30.918Z,99348.50
2019-05-03T17:48:00.362Z,99347.19
2019-05-03T17:50:29.736Z,99351.48
2019-05-03T17:53:15.756Z,99356.78
2019-05-03T17:55:49.791Z,99351.15
2019-05-03T17:58:20.819Z,99347.45
2019-05-03T18:00:51.842Z,99350.19
2019-05-03T18:03:22.342Z,99350.68
2019-05-03T18:05:53.561Z,99352.48
2019-05-03T18:08:27.651Z,99359.97
2019-05-03T18:11:04.572Z,99355.77
2019-05-03T18:13:35.382Z,99350.41
2019-05-03T18:16:04.993Z,99353.48
2019-05-03T18:18:35.691Z,99351.79
2019-05-03T18:21:05.132Z,99341.19
2019-05-03T18:23:35.147Z,99340.58
2019-05-03T18:26:05.271Z,99336.16
2019-05-03T18:28:35.582Z,99333.08
2019-05-03T18:31:08.512Z,99333.86
2019-05-03T18:33:36.649Z,99331.01
2019-05-03T18:36:06.157Z,99337.77
2019-05-03T18:38:37.188Z,99333.73
2019-05-03T18:41:07.192Z,99331.28
2019-05-03T18:43:38.216Z,99333.09
2019-05-03T18:46:11.982Z,99337.84
2019-05-03T18:48:41.361Z,99339.39
2019-05-03T18:51:10.787Z,99339.58
2019-05-03T18:53:40.183Z,99332.52
2019-05-03T18:56:09.567Z,99332.77
2019-05-03T18:58:39.029Z,99338.86
2019-05-03T19:01:08.990Z,99338.60
2019-05-03T19:03:39.126Z,99337.84
2019-05-03T19:06:10.223Z,99338.63
2019-05-03T19:08:44.776Z,99334.30
2019-05-03T19:11:32.279Z,99339.92
2019-05-03T19:14:11.848Z,99329.93
2019-05-03T19:16:45.669Z,99341.62
2019-05-03T19:19:17.883Z,99331.78
2019-05-03T19:21:47.273Z,99335.00
2019-05-03T19:24:16.884Z,99330.64
2019-05-03T19:26:46.295Z,99326.59
2019-05-03T19:29:17.841Z,99328.38
2019-05-03T19:31:47.492Z,99326.48
2019-05-03T19:34:16.853Z,99328.61
2019-05-03T19:36:46.418Z,99331.24
2019-05-03T19:39:16.715Z,99324.63
2019-05-03T19:41:46.465Z,99321.74
2019-05-03T19:44:16.529Z,99320.88
2019-05-03T19:46:46.597Z,99317.96
2019-05-03T19:49:16.502Z,99319.22
2019-05-03T19:51:46.611Z,99317.41
2019-05-03T19:54:16.982Z,99314.92
2019-05-03T19:56:46.871Z,99317.98
2019-05-03T19:59:34.816Z,99313.49
2019-05-03T20:02:05.894Z,99305.64
2019-05-03T20:04:59.992Z,99309.88
2019-05-03T20:07:31.941Z,99306.31
2019-05-03T20:10:01.745Z,99308.63
2019-05-03T20:12:31.114Z,99305.73
2019-05-03T20:15:00.519Z,99309.59
2019-05-03T20:17:59.273Z,99303.89
2019-05-03T20:20:20.672Z,99302.98
2019-05-03T20:22:50.315Z,99305.92
2019-05-03T20:25:19.707Z,99304.97
2019-05-03T20:27:49.098Z,99302.06
2019-05-03T20:30:18.709Z,99304.28
2019-05-03T20:32:48.087Z,99307.91
2019-05-03T20:35:19.443Z,99299.33
2019-05-03T20:37:48.658Z,99298.16
2019-05-03T20:40:18.110Z,99284.25
2019-05-03T20:43:05.700Z,99277.66
2019-05-03T20:45:36.718Z,99282.27
2019-05-03T20:48:07.811Z,99281.98
2019-05-03T20:50:37.180Z,99280.75
2019-05-03T20:53:06.582Z,99281.45
2019-05-03T20:55:35.971Z,99283.95
2019-05-03T20:58:08.262Z,99278.59
2019-05-03T21:00:36.741Z,99274.34
2019-05-03T21:03:06.112Z,99272.64
2019-05-03T21:05:37.461Z,99270.58
2019-05-03T21:08:07.091Z,99272.53
2019-05-03T21:10:39.024Z,99267.42
2019-05-03T21:13:11.052Z,99263.50
2019-05-03T21:15:44.841Z,99260.48
2019-05-03T21:18:30.826Z,99260.64
2019-05-03T21:21:18.199Z,99261.14
2019-05-03T21:23:58.118Z,99258.05
2019-05-03T21:26:27.485Z,99253.91
2019-05-03T21:28:56.884Z,99252.81
2019-05-03T21:31:26.246Z,99248.44
2019-05-03T21:33:55.651Z,99243.47
2019-05-03T21:36:25.546Z,99240.50
2019-05-03T21:38:55.023Z,99236.99
2019-05-03T21:41:24.730Z,99237.44
2019-05-03T21:43:54.609Z,99230.97
2019-05-03T21:46:28.459Z,99222.66
2019-05-03T21:49:11.051Z,99219.11
2019-05-03T21:51:40.439Z,99216.59
2019-05-03T21:54:09.816Z,99219.77
2019-05-03T21:56:39.183Z,99224.69
2019-05-03T21:59:08.580Z,99221.27
2019-05-03T22:01:39.650Z,99218.23
2019-05-03T22:04:09.039Z,99216.80
2019-05-03T22:06:38.429Z,99215.47
2019-05-03T22:09:07.970Z,99210.97
2019-05-03T22:11:37.341Z,99203.67
2019-05-03T22:14:08.376Z,99200.28
2019-05-03T22:16:41.798Z,99191.87
2019-05-03T22:19:11.204Z,99189.33
2019-05-03T22:21:42.233Z,99182.98
2019-05-03T22:24:19.293Z,99178.76
2019-05-03T22:26:53.594Z,99173.30
2019-05-03T22:29:25.435Z,99167.55
2019-05-03T22:31:54.816Z,99163.08
2019-05-03T22:34:25.704Z,99159.08
2019-05-03T22:36:55.344Z,99158.85
2019-05-03T22:39:25.274Z,99155.87
2019-05-03T22:41:54.735Z,99158.75
2019-05-03T22:44:25.351Z,99148.53
2019-05-03T22:46:55.256Z,99152.59
2019-05-03T22:49:25.964Z,99147.88
2019-05-03T22:51:55.619Z,99144.38
2019-05-03T22:54:25.032Z,99139.27
2019-05-03T22:56:55.494Z,99137.52
2019-05-03T22:59:25.387Z,99138.09
2019-05-03T23:01:55.024Z,99134.14
2019-05-03T23:04:25.288Z,99136.00
2019-05-03T23:06:55.700Z,99130.41
2019-05-03T23:09:25.273Z,99126.61
2019-05-03T23:11:55.168Z,99122.47
2019-05-03T23:14:25.680Z,99122.47
2019-05-03T23:16:55.216Z,99131.27
2019-05-03T23:19:24.587Z,99134.80
2019-05-03T23:21:58.770Z,99133.38
2019-05-03T23:24:28.132Z,99128.73
2019-05-03T23:26:57.521Z,99126.82
2019-05-03T23:29:26.880Z,99127.41
2019-05-03T23:31:56.275Z,99120.64
2019-05-03T23:34:25.636Z,99118.29
2019-05-03T23:36:55.370Z,99114.94
2019-05-03T23:39:25.026Z,99113.09
2019-05-03T23:41:55.702Z,99115.80
2019-05-03T23:44:25.289Z,99118.13
2019-05-03T23:47:11.623Z,99116.98
2019-05-03T23:49:41.003Z,99110.24
2019-05-03T23:52:27.206Z,99107.28
2019-05-03T23:54:58.275Z,99106.28
2019-05-03T23:57:27.936Z,99102.94
2019-05-03T23:59:57.340Z,99110.36
